sensor_id;sensor_type;location;lat;lon;timestamp;P1;durP1;ratioP1;P2;durP2;ratioP2
6149;SDS011;3106;42.670;23.318;2022-10-24T00:01:35;23.93;;;12.10;;
6149;SDS011;3106;42.670;23.318;2022-10-24T00:04:02;22.33;;;11.63;;
6149;SDS011;3106;42.670;23.318;2022-10-24T00:06:30;26.87;;;12.80;;
6149;SDS011;3106;42.670;23.318;2022-10-24T00:08:57;24.47;;;12.90;;
6149;SDS011;3106;42.670;23.318;2022-10-24T00:11:25;26.23;;;12.00;;
6149;SDS011;3106;42.670;23.318;2022-10-24T00:13:53;27.07;;;12.57;;
6149;SDS011;3106;42.670;23.318;2022-10-24T00:16:21;22.87;;;12.27;;
6149;SDS011;3106;42.670;23.318;2022-10-24T00:18:48;24.13;;;13.10;;
6149;SDS011;3106;42.670;23.318;2022-10-24T00:21:15;24.27;;;12.07;;
6149;SDS011;3106;42.670;23.318;2022-10-24T00:23:43;28.57;;;13.03;;
6149;SDS011;3106;42.670;23.318;2022-10-24T00:26:10;27.43;;;14.43;;
6149;SDS011;3106;42.670;23.318;2022-10-24T00:28:38;33.77;;;14.87;;
6149;SDS011;3106;42.670;23.318;2022-10-24T00:31:05;26.77;;;12.70;;
6149;SDS011;3106;42.670;23.318;2022-10-24T00:33:33;26.23;;;13.30;;
6149;SDS011;3106;42.670;23.318;2022-10-24T00:36:00;23.67;;;12.70;;
6149;SDS011;3106;42.670;23.318;2022-10-24T00:38:26;23.47;;;12.10;;
6149;SDS011;3106;42.670;23.318;2022-10-24T00:40:55;25.90;;;11.93;;
6149;SDS011;3106;42.670;23.318;2022-10-24T00:43:22;23.40;;;11.90;;
6149;SDS011;3106;42.670;23.318;2022-10-24T00:45:52;24.43;;;12.17;;
6149;SDS011;3106;42.670;23.318;2022-10-24T00:48:21;29.23;;;13.00;;
6149;SDS011;3106;42.670;23.318;2022-10-24T00:50:51;21.20;;;11.13;;
6149;SDS011;3106;42.670;23.318;2022-10-24T00:53:20;25.30;;;12.60;;
6149;SDS011;3106;42.670;23.318;2022-10-24T00:55:49;26.00;;;12.90;;
6149;SDS011;3106;42.670;23.318;2022-10-24T00:58:20;22.87;;;11.50;;
6149;SDS011;3106;42.670;23.318;2022-10-24T01:00:49;28.30;;;14.30;;
6149;SDS011;3106;42.670;23.318;2022-10-24T01:03:16;23.30;;;10.40;;
6149;SDS011;3106;42.670;23.318;2022-10-24T01:05:47;21.63;;;10.43;;
6149;SDS011;3106;42.670;23.318;2022-10-24T01:08:28;21.97;;;12.03;;
6149;SDS011;3106;42.670;23.318;2022-10-24T01:10:59;20.67;;;12.13;;
6149;SDS011;3106;42.670;23.318;2022-10-24T01:13:37;25.33;;;13.33;;
6149;SDS011;3106;42.670;23.318;2022-10-24T01:16:12;25.40;;;13.13;;
6149;SDS011;3106;42.670;23.318;2022-10-24T01:18:43;27.00;;;13.83;;
6149;SDS011;3106;42.670;23.318;2022-10-24T01:21:24;28.60;;;14.00;;
6149;SDS011;3106;42.670;23.318;2022-10-24T01:23:58;27.27;;;12.43;;
6149;SDS011;3106;42.670;23.318;2022-10-24T01:26:47;24.30;;;13.17;;
6149;SDS011;3106;42.670;23.318;2022-10-24T01:29:45;23.53;;;12.77;;
6149;SDS011;3106;42.670;23.318;2022-10-24T01:32:18;32.87;;;13.07;;
6149;SDS011;3106;42.670;23.318;2022-10-24T01:34:55;24.63;;;12.73;;
6149;SDS011;3106;42.670;23.318;2022-10-24T01:37:28;21.00;;;12.70;;
6149;SDS011;3106;42.670;23.318;2022-10-24T01:40:02;27.03;;;12.80;;
6149;SDS011;3106;42.670;23.318;2022-10-24T01:42:34;22.90;;;13.07;;
6149;SDS011;3106;42.670;23.318;2022-10-24T01:45:05;26.00;;;13.70;;
6149;SDS011;3106;42.670;23.318;2022-10-24T01:47:36;24.50;;;12.30;;
6149;SDS011;3106;42.670;23.318;2022-10-24T01:50:09;25.37;;;13.60;;
6149;SDS011;3106;42.670;23.318;2022-10-24T01:52:39;25.60;;;12.70;;
6149;SDS011;3106;42.670;23.318;2022-10-24T01:55:08;27.33;;;12.50;;
6149;SDS011;3106;42.670;23.318;2022-10-24T01:57:36;24.40;;;11.23;;
6149;SDS011;3106;42.670;23.318;2022-10-24T02:00:07;24.20;;;12.70;;
6149;SDS011;3106;42.670;23.318;2022-10-24T02:02:36;23.60;;;12.50;;
6149;SDS011;3106;42.670;23.318;2022-10-24T02:05:06;39.70;;;12.93;;
6149;SDS011;3106;42.670;23.318;2022-10-24T02:07:38;38.27;;;13.53;;
6149;SDS011;3106;42.670;23.318;2022-10-24T02:10:09;26.90;;;13.10;;
6149;SDS011;3106;42.670;23.318;2022-10-24T02:12:40;27.43;;;12.87;;
6149;SDS011;3106;42.670;23.318;2022-10-24T02:15:12;22.97;;;12.20;;
6149;SDS011;3106;42.670;23.318;2022-10-24T02:17:44;27.63;;;12.80;;
6149;SDS011;3106;42.670;23.318;2022-10-24T02:20:11;32.50;;;13.77;;
6149;SDS011;3106;42.670;23.318;2022-10-24T02:22:40;25.13;;;13.27;;
6149;SDS011;3106;42.670;23.318;2022-10-24T02:25:17;30.90;;;12.70;;
6149;SDS011;3106;42.670;23.318;2022-10-24T02:27:49;33.60;;;12.33;;
6149;SDS011;3106;42.670;23.318;2022-10-24T02:30:22;26.20;;;13.40;;
6149;SDS011;3106;42.670;23.318;2022-10-24T02:32:52;24.50;;;13.20;;
6149;SDS011;3106;42.670;23.318;2022-10-24T02:35:21;30.90;;;13.37;;
6149;SDS011;3106;42.670;23.318;2022-10-24T02:37:52;28.20;;;13.00;;
6149;SDS011;3106;42.670;23.318;2022-10-24T02:40:23;26.17;;;13.47;;
6149;SDS011;3106;42.670;23.318;2022-10-24T02:42:51;24.50;;;12.93;;
6149;SDS011;3106;42.670;23.318;2022-10-24T02:45:24;24.80;;;13.20;;
6149;SDS011;3106;42.670;23.318;2022-10-24T02:47:51;23.73;;;13.47;;
6149;SDS011;3106;42.670;23.318;2022-10-24T02:50:26;30.03;;;13.23;;
6149;SDS011;3106;42.670;23.318;2022-10-24T02:52:54;24.17;;;12.87;;
6149;SDS011;3106;42.670;23.318;2022-10-24T02:55:20;22.73;;;12.50;;
6149;SDS011;3106;42.670;23.318;2022-10-24T02:57:47;37.97;;;12.97;;
6149;SDS011;3106;42.670;23.318;2022-10-24T03:00:14;23.87;;;11.27;;
6149;SDS011;3106;42.670;23.318;2022-10-24T03:02:44;25.70;;;11.60;;
6149;SDS011;3106;42.670;23.318;2022-10-24T03:05:11;21.00;;;11.97;;
6149;SDS011;3106;42.670;23.318;2022-10-24T03:07:37;20.60;;;11.63;;
6149;SDS011;3106;42.670;23.318;2022-10-24T03:10:04;25.67;;;11.57;;
6149;SDS011;3106;42.670;23.318;2022-10-24T03:12:31;23.17;;;13.10;;
6149;SDS011;3106;42.670;23.318;2022-10-24T03:14:58;24.90;;;11.40;;
6149;SDS011;3106;42.670;23.318;2022-10-24T03:17:25;25.83;;;11.07;;
6149;SDS011;3106;42.670;23.318;2022-10-24T03:19:53;31.63;;;19.13;;
6149;SDS011;3106;42.670;23.318;2022-10-24T03:22:20;29.63;;;15.53;;
6149;SDS011;3106;42.670;23.318;2022-10-24T03:24:47;22.87;;;13.13;;
6149;SDS011;3106;42.670;23.318;2022-10-24T03:27:13;24.93;;;12.37;;
6149;SDS011;3106;42.670;23.318;2022-10-24T03:29:40;22.83;;;12.60;;
6149;SDS011;3106;42.670;23.318;2022-10-24T03:32:07;22.70;;;12.17;;
6149;SDS011;3106;42.670;23.318;2022-10-24T03:34:35;24.50;;;13.20;;
6149;SDS011;3106;42.670;23.318;2022-10-24T03:37:03;22.70;;;11.87;;
6149;SDS011;3106;42.670;23.318;2022-10-24T03:39:30;27.80;;;12.87;;
6149;SDS011;3106;42.670;23.318;2022-10-24T03:41:56;22.67;;;11.83;;
6149;SDS011;3106;42.670;23.318;2022-10-24T03:44:23;22.80;;;12.20;;
6149;SDS011;3106;42.670;23.318;2022-10-24T03:46:50;22.27;;;12.67;;
6149;SDS011;3106;42.670;23.318;2022-10-24T03:49:17;23.00;;;12.13;;
6149;SDS011;3106;42.670;23.318;2022-10-24T03:51:44;28.93;;;12.33;;
6149;SDS011;3106;42.670;23.318;2022-10-24T03:54:12;26.43;;;13.17;;
6149;SDS011;3106;42.670;23.318;2022-10-24T03:56:39;28.23;;;13.13;;
6149;SDS011;3106;42.670;23.318;2022-10-24T03:59:06;30.23;;;12.63;;
6149;SDS011;3106;42.670;23.318;2022-10-24T04:01:33;28.17;;;13.10;;
6149;SDS011;3106;42.670;23.318;2022-10-24T04:04:00;27.70;;;12.93;;
6149;SDS011;3106;42.670;23.318;2022-10-24T04:06:27;28.20;;;12.60;;
6149;SDS011;3106;42.670;23.318;2022-10-24T04:08:54;23.00;;;12.57;;
6149;SDS011;3106;42.670;23.318;2022-10-24T04:11:22;40.60;;;11.90;;
6149;SDS011;3106;42.670;23.318;2022-10-24T04:13:49;26.13;;;11.83;;
6149;SDS011;3106;42.670;23.318;2022-10-24T04:16:16;23.20;;;11.73;;
6149;SDS011;3106;42.670;23.318;2022-10-24T04:18:43;28.87;;;12.30;;
6149;SDS011;3106;42.670;23.318;2022-10-24T04:21:10;31.67;;;13.27;;
6149;SDS011;3106;42.670;23.318;2022-10-24T04:23:37;28.80;;;14.10;;
6149;SDS011;3106;42.670;23.318;2022-10-24T04:26:05;24.80;;;12.80;;
6149;SDS011;3106;42.670;23.318;2022-10-24T04:28:33;28.30;;;12.37;;
6149;SDS011;3106;42.670;23.318;2022-10-24T04:31:00;34.93;;;12.33;;
6149;SDS011;3106;42.670;23.318;2022-10-24T04:33:27;26.47;;;12.10;;
6149;SDS011;3106;42.670;23.318;2022-10-24T04:35:53;19.60;;;10.93;;
6149;SDS011;3106;42.670;23.318;2022-10-24T04:38:20;23.13;;;11.23;;
6149;SDS011;3106;42.670;23.318;2022-10-24T04:40:47;17.50;;;10.60;;
6149;SDS011;3106;42.670;23.318;2022-10-24T04:43:16;17.83;;;10.70;;
6149;SDS011;3106;42.670;23.318;2022-10-24T04:45:44;22.37;;;11.10;;
6149;SDS011;3106;42.670;23.318;2022-10-24T04:48:12;17.70;;;10.73;;
6149;SDS011;3106;42.670;23.318;2022-10-24T04:50:39;22.20;;;10.73;;
6149;SDS011;3106;42.670;23.318;2022-10-24T04:53:08;20.47;;;10.53;;
6149;SDS011;3106;42.670;23.318;2022-10-24T04:55:35;20.80;;;10.80;;
6149;SDS011;3106;42.670;23.318;2022-10-24T04:58:02;31.57;;;12.50;;
6149;SDS011;3106;42.670;23.318;2022-10-24T05:00:29;24.53;;;11.97;;
6149;SDS011;3106;42.670;23.318;2022-10-24T05:02:57;34.93;;;13.87;;
6149;SDS011;3106;42.670;23.318;2022-10-24T05:05:24;25.77;;;12.63;;
6149;SDS011;3106;42.670;23.318;2022-10-24T05:07:51;21.47;;;11.80;;
6149;SDS011;3106;42.670;23.318;2022-10-24T05:10:17;30.33;;;12.53;;
6149;SDS011;3106;42.670;23.318;2022-10-24T05:12:44;22.17;;;11.60;;
6149;SDS011;3106;42.670;23.318;2022-10-24T05:15:11;36.03;;;13.50;;
6149;SDS011;3106;42.670;23.318;2022-10-24T05:17:39;38.03;;;12.53;;
6149;SDS011;3106;42.670;23.318;2022-10-24T05:20:08;23.57;;;12.60;;
6149;SDS011;3106;42.670;23.318;2022-10-24T05:22:36;29.23;;;12.90;;
6149;SDS011;3106;42.670;23.318;2022-10-24T05:25:03;28.13;;;11.87;;
6149;SDS011;3106;42.670;23.318;2022-10-24T05:27:31;29.43;;;11.83;;
6149;SDS011;3106;42.670;23.318;2022-10-24T05:32:45;28.30;;;12.63;;
6149;SDS011;3106;42.670;23.318;2022-10-24T05:37:57;27.00;;;12.40;;
6149;SDS011;3106;42.670;23.318;2022-10-24T05:40:28;28.70;;;12.40;;
6149;SDS011;3106;42.670;23.318;2022-10-24T05:43:05;35.03;;;14.40;;
6149;SDS011;3106;42.670;23.318;2022-10-24T05:45:33;28.90;;;12.77;;
6149;SDS011;3106;42.670;23.318;2022-10-24T05:48:00;30.83;;;12.90;;
6149;SDS011;3106;42.670;23.318;2022-10-24T05:50:27;25.70;;;14.10;;
6149;SDS011;3106;42.670;23.318;2022-10-24T05:52:55;25.20;;;14.00;;
6149;SDS011;3106;42.670;23.318;2022-10-24T05:55:22;37.80;;;14.77;;
6149;SDS011;3106;42.670;23.318;2022-10-24T05:57:49;25.60;;;13.90;;
6149;SDS011;3106;42.670;23.318;2022-10-24T06:00:16;28.13;;;14.23;;
6149;SDS011;3106;42.670;23.318;2022-10-24T06:02:44;35.33;;;15.20;;
6149;SDS011;3106;42.670;23.318;2022-10-24T06:05:11;27.90;;;15.50;;
6149;SDS011;3106;42.670;23.318;2022-10-24T06:07:38;35.63;;;15.37;;
6149;SDS011;3106;42.670;23.318;2022-10-24T06:10:08;38.87;;;14.80;;
6149;SDS011;3106;42.670;23.318;2022-10-24T06:12:36;36.07;;;15.63;;
6149;SDS011;3106;42.670;23.318;2022-10-24T06:15:05;38.00;;;17.00;;
6149;SDS011;3106;42.670;23.318;2022-10-24T06:17:35;39.10;;;16.50;;
6149;SDS011;3106;42.670;23.318;2022-10-24T06:20:02;49.17;;;17.13;;
6149;SDS011;3106;42.670;23.318;2022-10-24T06:22:29;31.27;;;15.73;;
6149;SDS011;3106;42.670;23.318;2022-10-24T06:24:56;33.70;;;17.03;;
6149;SDS011;3106;42.670;23.318;2022-10-24T06:27:25;33.80;;;14.57;;
6149;SDS011;3106;42.670;23.318;2022-10-24T06:29:52;52.77;;;16.87;;
6149;SDS011;3106;42.670;23.318;2022-10-24T06:32:19;38.20;;;16.07;;
6149;SDS011;3106;42.670;23.318;2022-10-24T06:34:45;31.90;;;15.90;;
6149;SDS011;3106;42.670;23.318;2022-10-24T06:37:14;31.20;;;15.17;;
6149;SDS011;3106;42.670;23.318;2022-10-24T06:39:41;34.63;;;14.73;;
6149;SDS011;3106;42.670;23.318;2022-10-24T06:42:13;44.33;;;14.57;;
6149;SDS011;3106;42.670;23.318;2022-10-24T06:44:42;51.67;;;17.90;;
6149;SDS011;3106;42.670;23.318;2022-10-24T06:47:08;38.77;;;14.67;;
6149;SDS011;3106;42.670;23.318;2022-10-24T06:49:35;30.57;;;14.23;;
6149;SDS011;3106;42.670;23.318;2022-10-24T06:52:02;36.37;;;14.83;;
6149;SDS011;3106;42.670;23.318;2022-10-24T06:54:29;34.40;;;13.30;;
6149;SDS011;3106;42.670;23.318;2022-10-24T06:56:57;33.80;;;14.10;;
6149;SDS011;3106;42.670;23.318;2022-10-24T06:59:24;37.63;;;13.93;;
6149;SDS011;3106;42.670;23.318;2022-10-24T07:01:52;25.50;;;12.40;;
6149;SDS011;3106;42.670;23.318;2022-10-24T07:04:19;33.37;;;12.93;;
6149;SDS011;3106;42.670;23.318;2022-10-24T07:06:46;23.10;;;12.37;;
6149;SDS011;3106;42.670;23.318;2022-10-24T07:09:13;33.70;;;13.40;;
6149;SDS011;3106;42.670;23.318;2022-10-24T07:11:40;32.47;;;12.97;;
6149;SDS011;3106;42.670;23.318;2022-10-24T07:14:06;25.07;;;13.13;;
6149;SDS011;3106;42.670;23.318;2022-10-24T07:16:33;29.57;;;12.77;;
6149;SDS011;3106;42.670;23.318;2022-10-24T07:19:02;30.13;;;14.13;;
6149;SDS011;3106;42.670;23.318;2022-10-24T07:21:30;26.70;;;13.53;;
6149;SDS011;3106;42.670;23.318;2022-10-24T07:23:58;35.57;;;13.17;;
6149;SDS011;3106;42.670;23.318;2022-10-24T07:26:26;31.33;;;13.23;;
6149;SDS011;3106;42.670;23.318;2022-10-24T07:28:55;29.87;;;12.57;;
6149;SDS011;3106;42.670;23.318;2022-10-24T07:31:25;22.13;;;12.80;;
6149;SDS011;3106;42.670;23.318;2022-10-24T07:33:54;29.63;;;11.70;;
6149;SDS011;3106;42.670;23.318;2022-10-24T07:36:23;24.83;;;10.90;;
6149;SDS011;3106;42.670;23.318;2022-10-24T07:38:52;19.93;;;9.63;;
6149;SDS011;3106;42.670;23.318;2022-10-24T07:41:20;17.53;;;8.80;;
6149;SDS011;3106;42.670;23.318;2022-10-24T07:43:49;21.53;;;9.60;;
6149;SDS011;3106;42.670;23.318;2022-10-24T07:46:17;28.50;;;11.97;;
6149;SDS011;3106;42.670;23.318;2022-10-24T07:48:44;30.40;;;12.53;;
6149;SDS011;3106;42.670;23.318;2022-10-24T07:51:14;33.20;;;13.50;;
6149;SDS011;3106;42.670;23.318;2022-10-24T07:53:43;21.00;;;11.73;;
6149;SDS011;3106;42.670;23.318;2022-10-24T07:56:10;24.37;;;13.63;;
6149;SDS011;3106;42.670;23.318;2022-10-24T07:58:39;27.40;;;14.07;;
6149;SDS011;3106;42.670;23.318;2022-10-24T08:01:08;29.23;;;14.47;;
6149;SDS011;3106;42.670;23.318;2022-10-24T08:03:43;25.40;;;12.20;;
6149;SDS011;3106;42.670;23.318;2022-10-24T08:36:12;35.73;;;16.93;;
6149;SDS011;3106;42.670;23.318;2022-10-24T08:38:53;32.73;;;16.90;;
6149;SDS011;3106;42.670;23.318;2022-10-24T09:08:21;30.90;;;15.57;;
6149;SDS011;3106;42.670;23.318;2022-10-24T09:10:59;36.40;;;15.80;;
6149;SDS011;3106;42.670;23.318;2022-10-24T10:13:22;34.53;;;13.00;;
6149;SDS011;3106;42.670;23.318;2022-10-24T10:16:17;30.20;;;11.57;;
6149;SDS011;3106;42.670;23.318;2022-10-24T10:19:19;39.70;;;12.17;;
6149;SDS011;3106;42.670;23.318;2022-10-24T10:21:59;28.10;;;11.27;;
6149;SDS011;3106;42.670;23.318;2022-10-24T10:27:32;30.87;;;11.10;;
6149;SDS011;3106;42.670;23.318;2022-10-24T10:33:21;21.20;;;10.07;;
6149;SDS011;3106;42.670;23.318;2022-10-24T10:43:27;26.20;;;10.83;;
6149;SDS011;3106;42.670;23.318;2022-10-24T10:52:25;24.43;;;10.77;;
6149;SDS011;3106;42.670;23.318;2022-10-24T10:55:01;21.03;;;9.17;;
6149;SDS011;3106;42.670;23.318;2022-10-24T10:57:57;19.73;;;9.20;;
6149;SDS011;3106;42.670;23.318;2022-10-24T11:00:48;26.67;;;10.07;;
6149;SDS011;3106;42.670;23.318;2022-10-24T11:10:01;30.90;;;9.90;;
6149;SDS011;3106;42.670;23.318;2022-10-24T11:34:36;18.40;;;9.00;;
6149;SDS011;3106;42.670;23.318;2022-10-24T11:37:11;22.33;;;9.27;;
6149;SDS011;3106;42.670;23.318;2022-10-24T11:39:43;20.53;;;9.30;;
6149;SDS011;3106;42.670;23.318;2022-10-24T11:42:16;18.20;;;8.23;;
6149;SDS011;3106;42.670;23.318;2022-10-24T11:44:50;18.60;;;8.47;;
6149;SDS011;3106;42.670;23.318;2022-10-24T12:15:58;28.53;;;11.97;;
6149;SDS011;3106;42.670;23.318;2022-10-24T12:18:35;22.37;;;8.70;;
6149;SDS011;3106;42.670;23.318;2022-10-24T12:21:05;21.87;;;8.50;;
6149;SDS011;3106;42.670;23.318;2022-10-24T12:23:35;25.53;;;10.50;;
6149;SDS011;3106;42.670;23.318;2022-10-24T12:26:07;23.87;;;9.07;;
6149;SDS011;3106;42.670;23.318;2022-10-24T12:28:48;45.73;;;18.23;;
6149;SDS011;3106;42.670;23.318;2022-10-24T12:31:21;22.10;;;9.40;;
6149;SDS011;3106;42.670;23.318;2022-10-24T12:37:06;28.13;;;9.80;;
6149;SDS011;3106;42.670;23.318;2022-10-24T12:39:36;22.53;;;8.37;;
6149;SDS011;3106;42.670;23.318;2022-10-24T12:42:10;30.90;;;8.83;;
6149;SDS011;3106;42.670;23.318;2022-10-24T12:44:41;19.87;;;8.20;;
6149;SDS011;3106;42.670;23.318;2022-10-24T12:49:58;26.80;;;9.33;;
6149;SDS011;3106;42.670;23.318;2022-10-24T12:53:31;20.40;;;8.00;;
6149;SDS011;3106;42.670;23.318;2022-10-24T12:56:11;41.13;;;9.30;;
6149;SDS011;3106;42.670;23.318;2022-10-24T12:58:54;37.00;;;9.37;;
6149;SDS011;3106;42.670;23.318;2022-10-24T13:01:24;44.73;;;9.60;;
6149;SDS011;3106;42.670;23.318;2022-10-24T13:10:14;31.47;;;9.03;;
6149;SDS011;3106;42.670;23.318;2022-10-24T13:13:06;34.87;;;9.50;;
6149;SDS011;3106;42.670;23.318;2022-10-24T13:15:48;23.33;;;9.97;;
6149;SDS011;3106;42.670;23.318;2022-10-24T13:18:23;30.97;;;8.60;;
6149;SDS011;3106;42.670;23.318;2022-10-24T13:21:07;29.17;;;8.37;;
6149;SDS011;3106;42.670;23.318;2022-10-24T13:23:42;36.90;;;8.40;;
6149;SDS011;3106;42.670;23.318;2022-10-24T13:26:26;20.93;;;8.03;;
6149;SDS011;3106;42.670;23.318;2022-10-24T13:29:01;31.23;;;8.30;;
6149;SDS011;3106;42.670;23.318;2022-10-24T13:31:46;21.27;;;8.20;;
6149;SDS011;3106;42.670;23.318;2022-10-24T13:34:28;32.50;;;9.67;;
6149;SDS011;3106;42.670;23.318;2022-10-24T13:37:01;20.73;;;8.80;;
6149;SDS011;3106;42.670;23.318;2022-10-24T13:39:36;28.40;;;8.20;;
6149;SDS011;3106;42.670;23.318;2022-10-24T13:42:06;34.27;;;10.07;;
6149;SDS011;3106;42.670;23.318;2022-10-24T13:44:48;27.17;;;8.27;;
6149;SDS011;3106;42.670;23.318;2022-10-24T13:47:19;21.00;;;8.30;;
6149;SDS011;3106;42.670;23.318;2022-10-24T13:49:50;24.47;;;8.13;;
6149;SDS011;3106;42.670;23.318;2022-10-24T13:52:23;26.47;;;7.77;;
6149;SDS011;3106;42.670;23.318;2022-10-24T13:54:55;42.37;;;8.77;;
6149;SDS011;3106;42.670;23.318;2022-10-24T13:57:28;29.43;;;8.70;;
6149;SDS011;3106;42.670;23.318;2022-10-24T14:00:00;33.10;;;8.20;;
6149;SDS011;3106;42.670;23.318;2022-10-24T14:02:32;31.00;;;8.57;;
6149;SDS011;3106;42.670;23.318;2022-10-24T14:05:03;34.67;;;9.47;;
6149;SDS011;3106;42.670;23.318;2022-10-24T14:07:31;28.90;;;7.80;;
6149;SDS011;3106;42.670;23.318;2022-10-24T14:10:02;34.70;;;8.27;;
6149;SDS011;3106;42.670;23.318;2022-10-24T14:12:32;32.87;;;8.40;;
6149;SDS011;3106;42.670;23.318;2022-10-24T14:15:00;40.37;;;9.10;;
6149;SDS011;3106;42.670;23.318;2022-10-24T14:17:29;39.43;;;9.33;;
6149;SDS011;3106;42.670;23.318;2022-10-24T14:19:58;22.33;;;7.50;;
6149;SDS011;3106;42.670;23.318;2022-10-24T14:22:28;21.73;;;8.00;;
6149;SDS011;3106;42.670;23.318;2022-10-24T14:25:02;27.37;;;8.17;;
6149;SDS011;3106;42.670;23.318;2022-10-24T14:27:29;36.73;;;8.13;;
6149;SDS011;3106;42.670;23.318;2022-10-24T14:29:57;24.60;;;7.87;;
6149;SDS011;3106;42.670;23.318;2022-10-24T14:32:26;23.50;;;7.17;;
6149;SDS011;3106;42.670;23.318;2022-10-24T14:34:55;28.10;;;7.77;;
6149;SDS011;3106;42.670;23.318;2022-10-24T14:37:25;44.07;;;7.70;;
6149;SDS011;3106;42.670;23.318;2022-10-24T14:39:55;35.23;;;7.87;;
6149;SDS011;3106;42.670;23.318;2022-10-24T14:42:25;22.70;;;8.20;;
6149;SDS011;3106;42.670;23.318;2022-10-24T14:44:55;45.03;;;9.83;;
6149;SDS011;3106;42.670;23.318;2022-10-24T14:47:27;31.93;;;8.40;;
6149;SDS011;3106;42.670;23.318;2022-10-24T14:49:59;45.23;;;9.20;;
6149;SDS011;3106;42.670;23.318;2022-10-24T14:52:27;28.37;;;8.90;;
6149;SDS011;3106;42.670;23.318;2022-10-24T14:55:02;27.23;;;9.27;;
6149;SDS011;3106;42.670;23.318;2022-10-24T14:57:33;37.57;;;9.93;;
6149;SDS011;3106;42.670;23.318;2022-10-24T15:00:03;48.33;;;10.53;;
6149;SDS011;3106;42.670;23.318;2022-10-24T15:02:32;29.37;;;10.13;;
6149;SDS011;3106;42.670;23.318;2022-10-24T15:05:14;25.17;;;9.07;;
6149;SDS011;3106;42.670;23.318;2022-10-24T15:07:52;26.57;;;10.47;;
6149;SDS011;3106;42.670;23.318;2022-10-24T15:10:24;30.57;;;9.97;;
6149;SDS011;3106;42.670;23.318;2022-10-24T15:12:59;35.70;;;11.10;;
6149;SDS011;3106;42.670;23.318;2022-10-24T15:15:29;55.60;;;11.50;;
6149;SDS011;3106;42.670;23.318;2022-10-24T15:17:58;43.27;;;10.90;;
6149;SDS011;3106;42.670;23.318;2022-10-24T15:20:32;30.73;;;11.10;;
6149;SDS011;3106;42.670;23.318;2022-10-24T15:23:03;39.37;;;9.77;;
6149;SDS011;3106;42.670;23.318;2022-10-24T15:25:32;43.03;;;10.37;;
6149;SDS011;3106;42.670;23.318;2022-10-24T15:28:03;40.33;;;11.00;;
6149;SDS011;3106;42.670;23.318;2022-10-24T15:30:32;37.90;;;10.20;;
6149;SDS011;3106;42.670;23.318;2022-10-24T15:33:02;39.77;;;10.20;;
6149;SDS011;3106;42.670;23.318;2022-10-24T15:35:32;40.57;;;10.60;;
6149;SDS011;3106;42.670;23.318;2022-10-24T15:38:09;34.43;;;10.60;;
6149;SDS011;3106;42.670;23.318;2022-10-24T15:40:40;40.60;;;9.97;;
6149;SDS011;3106;42.670;23.318;2022-10-24T15:43:10;44.90;;;9.20;;
6149;SDS011;3106;42.670;23.318;2022-10-24T15:45:38;28.17;;;10.80;;
6149;SDS011;3106;42.670;23.318;2022-10-24T15:48:04;27.63;;;10.23;;
6149;SDS011;3106;42.670;23.318;2022-10-24T15:50:31;31.30;;;9.87;;
6149;SDS011;3106;42.670;23.318;2022-10-24T15:52:59;57.50;;;16.80;;
6149;SDS011;3106;42.670;23.318;2022-10-24T15:55:28;39.57;;;9.50;;
6149;SDS011;3106;42.670;23.318;2022-10-24T15:57:56;42.47;;;10.30;;
6149;SDS011;3106;42.670;23.318;2022-10-24T16:00:25;47.13;;;11.97;;
6149;SDS011;3106;42.670;23.318;2022-10-24T16:02:53;32.50;;;10.60;;
6149;SDS011;3106;42.670;23.318;2022-10-24T16:05:25;50.57;;;10.60;;
6149;SDS011;3106;42.670;23.318;2022-10-24T16:07:54;48.67;;;12.93;;
6149;SDS011;3106;42.670;23.318;2022-10-24T16:10:21;54.57;;;11.63;;
6149;SDS011;3106;42.670;23.318;2022-10-24T16:12:48;36.77;;;10.77;;
6149;SDS011;3106;42.670;23.318;2022-10-24T16:15:17;51.63;;;12.97;;
6149;SDS011;3106;42.670;23.318;2022-10-24T16:17:47;40.63;;;14.23;;
6149;SDS011;3106;42.670;23.318;2022-10-24T16:20:14;35.73;;;12.33;;
6149;SDS011;3106;42.670;23.318;2022-10-24T16:22:41;35.03;;;11.23;;
6149;SDS011;3106;42.670;23.318;2022-10-24T16:25:11;39.83;;;11.40;;
6149;SDS011;3106;42.670;23.318;2022-10-24T16:27:41;27.53;;;11.90;;
6149;SDS011;3106;42.670;23.318;2022-10-24T16:30:14;47.93;;;13.90;;
6149;SDS011;3106;42.670;23.318;2022-10-24T16:32:43;68.23;;;20.40;;
6149;SDS011;3106;42.670;23.318;2022-10-24T16:35:16;64.27;;;15.10;;
6149;SDS011;3106;42.670;23.318;2022-10-24T16:37:44;61.67;;;18.47;;
6149;SDS011;3106;42.670;23.318;2022-10-24T16:40:11;38.30;;;15.10;;
6149;SDS011;3106;42.670;23.318;2022-10-24T16:42:41;55.90;;;17.07;;
6149;SDS011;3106;42.670;23.318;2022-10-24T16:45:08;66.67;;;17.53;;
6149;SDS011;3106;42.670;23.318;2022-10-24T16:47:35;35.03;;;10.90;;
6149;SDS011;3106;42.670;23.318;2022-10-24T16:50:02;29.40;;;8.87;;
6149;SDS011;3106;42.670;23.318;2022-10-24T16:52:32;25.10;;;8.67;;
6149;SDS011;3106;42.670;23.318;2022-10-24T16:54:59;41.73;;;8.63;;
6149;SDS011;3106;42.670;23.318;2022-10-24T16:57:26;31.37;;;7.57;;
6149;SDS011;3106;42.670;23.318;2022-10-24T16:59:53;25.13;;;9.30;;
6149;SDS011;3106;42.670;23.318;2022-10-24T17:02:20;19.13;;;8.50;;
6149;SDS011;3106;42.670;23.318;2022-10-24T17:04:46;38.47;;;7.70;;
6149;SDS011;3106;42.670;23.318;2022-10-24T17:07:13;28.80;;;8.53;;
6149;SDS011;3106;42.670;23.318;2022-10-24T17:09:42;48.20;;;12.53;;
6149;SDS011;3106;42.670;23.318;2022-10-24T17:12:08;49.63;;;12.20;;
6149;SDS011;3106;42.670;23.318;2022-10-24T17:14:36;63.47;;;15.03;;
6149;SDS011;3106;42.670;23.318;2022-10-24T17:17:07;40.57;;;11.03;;
6149;SDS011;3106;42.670;23.318;2022-10-24T17:19:42;76.47;;;15.33;;
6149;SDS011;3106;42.670;23.318;2022-10-24T17:22:12;55.87;;;13.93;;
6149;SDS011;3106;42.670;23.318;2022-10-24T17:24:51;57.37;;;16.33;;
6149;SDS011;3106;42.670;23.318;2022-10-24T17:27:19;41.00;;;13.37;;
6149;SDS011;3106;42.670;23.318;2022-10-24T17:29:50;36.97;;;11.80;;
6149;SDS011;3106;42.670;23.318;2022-10-24T17:32:18;51.63;;;13.23;;
6149;SDS011;3106;42.670;23.318;2022-10-24T17:34:45;72.10;;;12.90;;
6149;SDS011;3106;42.670;23.318;2022-10-24T17:37:16;39.43;;;11.87;;
6149;SDS011;3106;42.670;23.318;2022-10-24T17:39:47;40.63;;;12.73;;
6149;SDS011;3106;42.670;23.318;2022-10-24T17:42:18;44.63;;;16.37;;
6149;SDS011;3106;42.670;23.318;2022-10-24T17:44:45;73.73;;;15.30;;
6149;SDS011;3106;42.670;23.318;2022-10-24T17:47:13;57.93;;;14.77;;
6149;SDS011;3106;42.670;23.318;2022-10-24T17:49:40;107.03;;;45.90;;
6149;SDS011;3106;42.670;23.318;2022-10-24T17:52:08;53.00;;;16.80;;
6149;SDS011;3106;42.670;23.318;2022-10-24T17:54:35;46.30;;;14.77;;
6149;SDS011;3106;42.670;23.318;2022-10-24T17:57:15;58.83;;;15.97;;
6149;SDS011;3106;42.670;23.318;2022-10-24T17:59:42;61.23;;;14.33;;
6149;SDS011;3106;42.670;23.318;2022-10-24T18:02:10;58.40;;;14.93;;
6149;SDS011;3106;42.670;23.318;2022-10-24T18:04:38;44.40;;;14.90;;
6149;SDS011;3106;42.670;23.318;2022-10-24T18:07:08;40.70;;;13.73;;
6149;SDS011;3106;42.670;23.318;2022-10-24T18:09:39;43.40;;;14.20;;
6149;SDS011;3106;42.670;23.318;2022-10-24T18:12:06;43.10;;;13.87;;
6149;SDS011;3106;42.670;23.318;2022-10-24T18:14:35;43.10;;;12.90;;
6149;SDS011;3106;42.670;23.318;2022-10-24T18:17:02;50.53;;;15.50;;
6149;SDS011;3106;42.670;23.318;2022-10-24T18:19:29;50.17;;;12.97;;
6149;SDS011;3106;42.670;23.318;2022-10-24T18:21:57;40.57;;;14.00;;
6149;SDS011;3106;42.670;23.318;2022-10-24T18:24:24;35.83;;;11.70;;
6149;SDS011;3106;42.670;23.318;2022-10-24T18:26:54;46.50;;;18.13;;
6149;SDS011;3106;42.670;23.318;2022-10-24T18:29:22;42.77;;;13.00;;